• Join FlightAware (Why Join?)
  • Login
  • US Flag 
02:53PM EDT


 

Airport Tracker/Info


-or-


 

Live Flight TrackerFlight Track Log ✈ FIN666 ✈ 23-Dec-2013 ✈ EKCH / CPH - EFHK / HEL

Flight Track Log - Related Links

Times and Time Zones

All times are in EST time to prevent confusion due to time zone crossing. See the FIN666 flight status page for this flight to view local times or setup timezone preferences in your user account.

Time Position Orientation Groundspeed Altitude Reporting Facility
EST Latitude Longitude Course Direction KTS MPH feet Rate Location/Type
07:29AM 55.9164 13.2747 49° Northeast  Level Estimated
07:30AM 55.9905 13.4309 50° Northeast  Level Estimated
07:31AM 56.0644 13.5877 50° Northeast  Level Estimated
07:32AM 56.1414 13.7521 50° Northeast  Level Estimated
07:33AM 56.2182 13.9172 50° Northeast  Level Estimated
07:34AM 56.2948 14.0830 50° Northeast  Level Estimated
07:35AM 56.3712 14.2494 50° Northeast  Level Estimated
07:36AM 56.4473 14.4165 50° Northeast  Level Estimated
07:37AM 56.5232 14.5843 51° Northeast  Level Estimated
07:38AM 56.5989 14.7527 51° Northeast  Level Estimated
07:39AM 56.6743 14.9218 51° Northeast  Level Estimated
07:40AM 56.7496 15.0916 51° Northeast  Level Estimated
07:41AM 56.8246 15.2621 51° Northeast  Level Estimated
07:42AM 56.8993 15.4332 51° Northeast  Level Estimated
07:43AM 56.9738 15.6051 51° Northeast  Level Estimated
07:44AM 57.0481 15.7776 52° Northeast  Level Estimated
07:45AM 57.1222 15.9508 52° Northeast  Level Estimated
07:46AM 57.1960 16.1247 52° Northeast  Level Estimated
07:47AM 57.2696 16.2993 52° Northeast  Level Estimated
07:48AM 57.3429 16.4746 52° Northeast  Level Estimated
07:49AM 57.4160 16.6506 52° Northeast  Level Estimated
07:50AM 57.4888 16.8274 52° Northeast  Level Estimated
07:51AM 57.5614 17.0048 53° Northeast  Level Estimated
07:52AM 57.6337 17.1829 53° Northeast  Level Estimated
07:53AM 57.7058 17.3617 53° Northeast  Level Estimated
07:54AM 57.7776 17.5413 53° Northeast  Level Estimated
07:55AM 57.8492 17.7215 53° Northeast  Level Estimated
07:56AM 57.9206 17.9025 53° Northeast  Level Estimated
07:57AM 57.9916 18.0842 54° Northeast  Level Estimated
07:58AM 58.0624 18.2666 54° Northeast  Level Estimated
07:59AM 58.1329 18.4497 54° Northeast  Level Estimated
08:00AM 58.2032 18.6336 54° Northeast  Level Estimated
08:01AM 58.2732 18.8181 54° Northeast  Level Estimated
08:02AM 58.3430 19.0035 54° Northeast  Level Estimated
08:03AM 58.4125 19.1895 54° Northeast  Level Estimated
08:04AM 58.4817 19.3763 55° Northeast  Level Estimated
08:05AM 58.5506 19.5638 55° Northeast  Level Estimated
08:06AM 58.6193 19.7521 55° Northeast  Level Estimated
08:07AM 58.6876 19.9411 55° Northeast  Level Estimated
08:08AM 58.7558 20.1308 55° Northeast  Level Estimated
08:09AM 58.8236 20.3213 55° Northeast  Level Estimated
08:10AM 58.8911 20.5125 56° Northeast  Level Estimated
08:11AM 58.9584 20.7045 56° Northeast  Level Estimated
08:12AM 59.0254 20.8972 56° Northeast  Level Estimated
08:13AM 59.0921 21.0907 56° Northeast  Level Estimated
08:14AM 59.1585 21.2849 56° Northeast  Level Estimated
08:15AM 59.2246 21.4799 56° Northeast  Level Estimated
08:16AM 59.2904 21.6756 57° Northeast  Level Estimated
08:17AM 59.3559 21.8721 57° Northeast  Level Estimated
08:18AM 59.4211 22.0694 57° Northeast  Level Estimated
08:19AM 59.4861 22.2674 57° Northeast  Level Estimated
08:20AM 59.5507 22.4661 57° Northeast  Level Estimated
08:21AM 59.6150 22.6657 57° Northeast  Level Estimated
08:22AM 59.6790 22.8660 58° Northeast  Level Estimated
08:23AM 59.7427 23.0670 58° Northeast  Level Estimated
08:24AM 59.8061 23.2689 58° Northeast  Level Estimated
08:25AM 59.8692 23.4715 58° Northeast  Level Estimated
08:26AM 59.9320 23.6748 58° Northeast  Level Estimated
08:27AM 59.9945 23.8789 58° Northeast  Level Estimated
08:28AM 60.0566 24.0838 59° Northeast  Level Estimated
08:29AM 60.1185 24.2895 59° Northeast  Level Estimated
08:30AM 60.1800 24.4960 59° Northeast  Level Estimated
08:31AM 60.2412 24.7032 59° Northeast  Level Estimated
08:32AM 60.3020 24.9112 59° Northeast  Level Estimated
08:33AM 60.3172 24.9633 60° Northeast  Level Estimated
08:34AM 60.3172 24.9633 37° Northeast  Level Estimated
08:35AM 60.3172 24.9633 37° Northeast  Level Estimated
08:36AM 60.3172 24.9633 37° Northeast  Level Estimated
08:37AM 60.3172 24.9633 37° Northeast  Level Estimated
08:38AM 60.3172 24.9633 37° Northeast  Level Estimated
08:39AM 60.3172 24.9633 37° Northeast  Level Estimated
08:40AM 60.3172 24.9633 37° Northeast  Level Estimated
08:41AM 60.3172 24.9633 37° Northeast  Level Estimated
08:42AM 60.3172 24.9633 37° Northeast  Level Estimated
08:43AM 60.3172 24.9633 37° Northeast  Level Estimated
08:44AM 60.3172 24.9633 37° Northeast  Level Estimated